sensor_id;sensor_type;location;lat;lon;timestamp;temperature;humidity
25628;DHT22;40915;50.826;4.356;2023-02-23T00:01:27;8.60;99.90
25628;DHT22;40915;50.826;4.356;2023-02-23T00:03:55;8.60;99.90
25628;DHT22;40915;50.826;4.356;2023-02-23T00:06:22;8.60;99.90
25628;DHT22;40915;50.826;4.356;2023-02-23T00:08:48;8.60;99.90
25628;DHT22;40915;50.826;4.356;2023-02-23T00:11:15;8.60;99.90
25628;DHT22;40915;50.826;4.356;2023-02-23T00:13:42;8.60;99.90
25628;DHT22;40915;50.826;4.356;2023-02-23T00:16:12;8.60;99.90
25628;DHT22;40915;50.826;4.356;2023-02-23T00:18:48;8.60;99.90
25628;DHT22;40915;50.826;4.356;2023-02-23T00:21:27;8.60;99.90
25628;DHT22;40915;50.826;4.356;2023-02-23T00:23:57;8.60;99.90
25628;DHT22;40915;50.826;4.356;2023-02-23T00:26:26;8.60;99.90
25628;DHT22;40915;50.826;4.356;2023-02-23T00:28:55;8.70;99.90
25628;DHT22;40915;50.826;4.356;2023-02-23T00:31:21;8.60;99.90
25628;DHT22;40915;50.826;4.356;2023-02-23T00:33:52;8.60;99.90
25628;DHT22;40915;50.826;4.356;2023-02-23T00:36:22;8.60;99.90
25628;DHT22;40915;50.826;4.356;2023-02-23T00:38:52;8.60;99.90
25628;DHT22;40915;50.826;4.356;2023-02-23T00:41:18;8.60;99.90
25628;DHT22;40915;50.826;4.356;2023-02-23T00:43:47;8.70;99.90
25628;DHT22;40915;50.826;4.356;2023-02-23T00:46:15;8.60;99.90
25628;DHT22;40915;50.826;4.356;2023-02-23T00:48:42;8.70;99.90
25628;DHT22;40915;50.826;4.356;2023-02-23T00:51:09;8.60;99.90
25628;DHT22;40915;50.826;4.356;2023-02-23T00:53:35;8.60;99.90
25628;DHT22;40915;50.826;4.356;2023-02-23T00:56:03;8.60;99.90
25628;DHT22;40915;50.826;4.356;2023-02-23T00:58:29;8.60;99.90
25628;DHT22;40915;50.826;4.356;2023-02-23T01:00:55;8.60;99.90
25628;DHT22;40915;50.826;4.356;2023-02-23T01:03:21;8.60;99.90
25628;DHT22;40915;50.826;4.356;2023-02-23T01:05:47;8.60;99.90
25628;DHT22;40915;50.826;4.356;2023-02-23T01:08:15;8.60;99.90
25628;DHT22;40915;50.826;4.356;2023-02-23T01:10:41;8.60;99.90
25628;DHT22;40915;50.826;4.356;2023-02-23T01:13:08;8.50;99.90
25628;DHT22;40915;50.826;4.356;2023-02-23T01:15:39;8.50;99.90
25628;DHT22;40915;50.826;4.356;2023-02-23T01:18:06;8.50;99.90
25628;DHT22;40915;50.826;4.356;2023-02-23T01:20:33;8.50;99.90
25628;DHT22;40915;50.826;4.356;2023-02-23T01:23:01;8.50;99.90
25628;DHT22;40915;50.826;4.356;2023-02-23T01:25:27;8.60;99.90
25628;DHT22;40915;50.826;4.356;2023-02-23T01:27:53;8.50;99.90
25628;DHT22;40915;50.826;4.356;2023-02-23T01:30:19;8.50;99.90
25628;DHT22;40915;50.826;4.356;2023-02-23T01:32:45;8.50;99.90
25628;DHT22;40915;50.826;4.356;2023-02-23T01:35:11;8.60;99.90
25628;DHT22;40915;50.826;4.356;2023-02-23T01:37:40;8.50;99.90
25628;DHT22;40915;50.826;4.356;2023-02-23T01:40:20;8.50;99.90
25628;DHT22;40915;50.826;4.356;2023-02-23T01:43:13;8.50;99.90
25628;DHT22;40915;50.826;4.356;2023-02-23T01:45:41;8.50;99.90
25628;DHT22;40915;50.826;4.356;2023-02-23T01:48:13;8.50;99.90
25628;DHT22;40915;50.826;4.356;2023-02-23T01:50:59;8.50;99.90
25628;DHT22;40915;50.826;4.356;2023-02-23T01:53:29;8.50;99.90
25628;DHT22;40915;50.826;4.356;2023-02-23T01:56:01;8.50;99.90
25628;DHT22;40915;50.826;4.356;2023-02-23T01:58:29;8.50;99.90
25628;DHT22;40915;50.826;4.356;2023-02-23T02:00:57;8.50;99.90
25628;DHT22;40915;50.826;4.356;2023-02-23T02:03:42;8.50;99.90
25628;DHT22;40915;50.826;4.356;2023-02-23T02:06:12;8.50;99.90
25628;DHT22;40915;50.826;4.356;2023-02-23T02:08:44;8.50;99.90
25628;DHT22;40915;50.826;4.356;2023-02-23T02:11:16;8.40;99.90
25628;DHT22;40915;50.826;4.356;2023-02-23T02:14:05;8.40;99.90
25628;DHT22;40915;50.826;4.356;2023-02-23T02:24:47;8.50;99.90
25628;DHT22;40915;50.826;4.356;2023-02-23T02:35:11;8.40;99.90
25628;DHT22;40915;50.826;4.356;2023-02-23T02:43:06;8.40;99.90
25628;DHT22;40915;50.826;4.356;2023-02-23T02:45:43;8.40;99.90
25628;DHT22;40915;50.826;4.356;2023-02-23T02:48:25;8.40;99.90
25628;DHT22;40915;50.826;4.356;2023-02-23T02:51:03;8.40;99.90
25628;DHT22;40915;50.826;4.356;2023-02-23T02:56:22;8.50;99.90
25628;DHT22;40915;50.826;4.356;2023-02-23T02:58:51;8.40;99.90
25628;DHT22;40915;50.826;4.356;2023-02-23T03:01:18;8.40;99.90
25628;DHT22;40915;50.826;4.356;2023-02-23T03:04:21;8.40;99.90
25628;DHT22;40915;50.826;4.356;2023-02-23T03:10:25;8.40;99.90
25628;DHT22;40915;50.826;4.356;2023-02-23T03:19:22;8.40;99.90
25628;DHT22;40915;50.826;4.356;2023-02-23T03:22:29;8.40;99.90
25628;DHT22;40915;50.826;4.356;2023-02-23T03:30:50;8.40;99.90
25628;DHT22;40915;50.826;4.356;2023-02-23T03:34:10;8.40;99.90
25628;DHT22;40915;50.826;4.356;2023-02-23T03:37:10;8.40;99.90
25628;DHT22;40915;50.826;4.356;2023-02-23T03:40:26;8.40;99.90
25628;DHT22;40915;50.826;4.356;2023-02-23T03:43:16;8.40;99.90
25628;DHT22;40915;50.826;4.356;2023-02-23T03:46:02;8.40;99.90
25628;DHT22;40915;50.826;4.356;2023-02-23T03:48:49;8.40;99.90
25628;DHT22;40915;50.826;4.356;2023-02-23T03:51:38;8.40;99.90
25628;DHT22;40915;50.826;4.356;2023-02-23T03:54:37;8.40;99.90
25628;DHT22;40915;50.826;4.356;2023-02-23T03:57:24;8.40;99.90
25628;DHT22;40915;50.826;4.356;2023-02-23T04:00:16;8.40;99.90
25628;DHT22;40915;50.826;4.356;2023-02-23T04:03:04;8.30;99.90
25628;DHT22;40915;50.826;4.356;2023-02-23T04:05:50;8.30;99.90
25628;DHT22;40915;50.826;4.356;2023-02-23T04:08:37;8.30;99.90
25628;DHT22;40915;50.826;4.356;2023-02-23T04:11:45;8.30;99.90
25628;DHT22;40915;50.826;4.356;2023-02-23T04:14:37;8.30;99.90
25628;DHT22;40915;50.826;4.356;2023-02-23T04:17:07;8.30;99.90
25628;DHT22;40915;50.826;4.356;2023-02-23T04:19:33;8.30;99.90
25628;DHT22;40915;50.826;4.356;2023-02-23T04:21:59;8.30;99.90
25628;DHT22;40915;50.826;4.356;2023-02-23T04:24:24;8.30;99.90
25628;DHT22;40915;50.826;4.356;2023-02-23T04:26:50;8.30;99.90
25628;DHT22;40915;50.826;4.356;2023-02-23T04:29:16;8.30;99.90
25628;DHT22;40915;50.826;4.356;2023-02-23T04:31:41;8.40;99.90
25628;DHT22;40915;50.826;4.356;2023-02-23T04:34:07;8.30;99.90
25628;DHT22;40915;50.826;4.356;2023-02-23T04:36:33;8.30;99.90
25628;DHT22;40915;50.826;4.356;2023-02-23T04:38:58;8.30;99.90
25628;DHT22;40915;50.826;4.356;2023-02-23T04:41:24;8.30;99.90
25628;DHT22;40915;50.826;4.356;2023-02-23T04:43:51;8.20;99.90
25628;DHT22;40915;50.826;4.356;2023-02-23T04:46:16;8.20;99.90
25628;DHT22;40915;50.826;4.356;2023-02-23T04:48:42;8.20;99.90
25628;DHT22;40915;50.826;4.356;2023-02-23T04:51:08;8.20;99.90
25628;DHT22;40915;50.826;4.356;2023-02-23T04:53:33;8.20;99.90
25628;DHT22;40915;50.826;4.356;2023-02-23T04:55:59;8.20;99.90
25628;DHT22;40915;50.826;4.356;2023-02-23T04:58:25;8.20;99.90
25628;DHT22;40915;50.826;4.356;2023-02-23T05:00:51;8.20;99.90
25628;DHT22;40915;50.826;4.356;2023-02-23T05:03:16;8.20;99.90
25628;DHT22;40915;50.826;4.356;2023-02-23T05:05:43;8.20;99.90
25628;DHT22;40915;50.826;4.356;2023-02-23T05:08:09;8.20;99.90
25628;DHT22;40915;50.826;4.356;2023-02-23T05:10:35;8.20;99.90
25628;DHT22;40915;50.826;4.356;2023-02-23T05:13:00;8.20;99.90
25628;DHT22;40915;50.826;4.356;2023-02-23T05:15:26;8.20;99.90
25628;DHT22;40915;50.826;4.356;2023-02-23T05:17:53;8.20;99.90
25628;DHT22;40915;50.826;4.356;2023-02-23T05:20:20;8.20;99.90
25628;DHT22;40915;50.826;4.356;2023-02-23T05:22:45;8.30;99.90
25628;DHT22;40915;50.826;4.356;2023-02-23T05:25:11;8.30;99.90
25628;DHT22;40915;50.826;4.356;2023-02-23T05:27:39;8.30;99.90
25628;DHT22;40915;50.826;4.356;2023-02-23T05:30:05;8.30;99.90
25628;DHT22;40915;50.826;4.356;2023-02-23T05:32:32;8.30;99.90
25628;DHT22;40915;50.826;4.356;2023-02-23T05:34:59;8.30;99.90
25628;DHT22;40915;50.826;4.356;2023-02-23T05:37:25;8.30;99.90
25628;DHT22;40915;50.826;4.356;2023-02-23T05:39:51;8.40;99.90
25628;DHT22;40915;50.826;4.356;2023-02-23T05:42:17;8.40;99.90
25628;DHT22;40915;50.826;4.356;2023-02-23T05:44:42;8.40;99.90
25628;DHT22;40915;50.826;4.356;2023-02-23T05:47:08;8.40;99.90
25628;DHT22;40915;50.826;4.356;2023-02-23T05:49:36;8.40;99.90
25628;DHT22;40915;50.826;4.356;2023-02-23T05:52:01;8.30;99.90
25628;DHT22;40915;50.826;4.356;2023-02-23T05:54:27;8.30;99.90
25628;DHT22;40915;50.826;4.356;2023-02-23T05:56:52;8.30;99.90
25628;DHT22;40915;50.826;4.356;2023-02-23T05:59:18;8.40;99.90
25628;DHT22;40915;50.826;4.356;2023-02-23T06:01:44;8.40;99.90
25628;DHT22;40915;50.826;4.356;2023-02-23T06:04:09;8.40;99.90
25628;DHT22;40915;50.826;4.356;2023-02-23T06:06:35;8.40;99.90
25628;DHT22;40915;50.826;4.356;2023-02-23T06:09:02;8.40;99.90
25628;DHT22;40915;50.826;4.356;2023-02-23T06:11:28;8.40;99.90
25628;DHT22;40915;50.826;4.356;2023-02-23T06:13:56;8.40;99.90
25628;DHT22;40915;50.826;4.356;2023-02-23T06:16:21;8.40;99.90
25628;DHT22;40915;50.826;4.356;2023-02-23T06:18:47;8.40;99.90
25628;DHT22;40915;50.826;4.356;2023-02-23T06:21:13;8.40;99.90
25628;DHT22;40915;50.826;4.356;2023-02-23T06:23:39;8.40;99.90
25628;DHT22;40915;50.826;4.356;2023-02-23T06:26:06;8.40;99.90
25628;DHT22;40915;50.826;4.356;2023-02-23T06:28:33;8.40;99.90
25628;DHT22;40915;50.826;4.356;2023-02-23T06:30:59;8.30;99.90
25628;DHT22;40915;50.826;4.356;2023-02-23T06:33:25;8.40;99.90
25628;DHT22;40915;50.826;4.356;2023-02-23T06:35:53;8.30;99.90
25628;DHT22;40915;50.826;4.356;2023-02-23T06:38:20;8.30;99.90
25628;DHT22;40915;50.826;4.356;2023-02-23T06:40:46;8.30;99.90
25628;DHT22;40915;50.826;4.356;2023-02-23T06:43:13;8.30;99.90
25628;DHT22;40915;50.826;4.356;2023-02-23T06:45:38;8.30;99.90
25628;DHT22;40915;50.826;4.356;2023-02-23T06:48:05;8.30;99.90
25628;DHT22;40915;50.826;4.356;2023-02-23T06:50:32;8.30;99.90
25628;DHT22;40915;50.826;4.356;2023-02-23T06:52:57;8.40;99.90
25628;DHT22;40915;50.826;4.356;2023-02-23T06:55:23;8.40;99.90
25628;DHT22;40915;50.826;4.356;2023-02-23T06:57:49;8.30;99.90
25628;DHT22;40915;50.826;4.356;2023-02-23T07:00:18;8.30;99.90
25628;DHT22;40915;50.826;4.356;2023-02-23T07:02:43;8.30;99.90
25628;DHT22;40915;50.826;4.356;2023-02-23T07:05:10;8.30;99.90
25628;DHT22;40915;50.826;4.356;2023-02-23T07:07:36;8.30;99.90
25628;DHT22;40915;50.826;4.356;2023-02-23T07:10:03;8.30;99.90
25628;DHT22;40915;50.826;4.356;2023-02-23T07:12:29;8.30;99.90
25628;DHT22;40915;50.826;4.356;2023-02-23T07:14:55;8.30;99.90
25628;DHT22;40915;50.826;4.356;2023-02-23T07:17:20;8.30;99.90
25628;DHT22;40915;50.826;4.356;2023-02-23T07:19:46;8.40;99.90
25628;DHT22;40915;50.826;4.356;2023-02-23T07:22:12;8.40;99.90
25628;DHT22;40915;50.826;4.356;2023-02-23T07:24:41;8.40;99.90
25628;DHT22;40915;50.826;4.356;2023-02-23T07:27:06;8.40;99.90
25628;DHT22;40915;50.826;4.356;2023-02-23T07:29:33;8.40;99.90
25628;DHT22;40915;50.826;4.356;2023-02-23T07:31:58;8.40;99.90
25628;DHT22;40915;50.826;4.356;2023-02-23T07:34:24;8.40;99.90
25628;DHT22;40915;50.826;4.356;2023-02-23T07:36:51;8.40;99.90
25628;DHT22;40915;50.826;4.356;2023-02-23T07:39:18;8.40;99.90
25628;DHT22;40915;50.826;4.356;2023-02-23T07:41:45;8.40;99.90
25628;DHT22;40915;50.826;4.356;2023-02-23T07:44:11;8.50;99.90
25628;DHT22;40915;50.826;4.356;2023-02-23T07:46:36;8.50;99.90
25628;DHT22;40915;50.826;4.356;2023-02-23T07:49:04;8.50;99.90
25628;DHT22;40915;50.826;4.356;2023-02-23T07:51:31;8.50;99.90
25628;DHT22;40915;50.826;4.356;2023-02-23T07:54:01;8.50;99.90
25628;DHT22;40915;50.826;4.356;2023-02-23T07:56:29;8.60;99.90
25628;DHT22;40915;50.826;4.356;2023-02-23T07:58:54;8.50;99.90
25628;DHT22;40915;50.826;4.356;2023-02-23T08:01:20;8.60;99.90
25628;DHT22;40915;50.826;4.356;2023-02-23T08:03:45;8.60;99.90
25628;DHT22;40915;50.826;4.356;2023-02-23T08:06:17;8.60;99.90
25628;DHT22;40915;50.826;4.356;2023-02-23T08:08:42;8.70;99.90
25628;DHT22;40915;50.826;4.356;2023-02-23T08:11:08;8.70;99.90
25628;DHT22;40915;50.826;4.356;2023-02-23T08:13:35;8.70;99.90
25628;DHT22;40915;50.826;4.356;2023-02-23T08:16:02;8.70;99.90
25628;DHT22;40915;50.826;4.356;2023-02-23T08:18:27;8.70;99.90
25628;DHT22;40915;50.826;4.356;2023-02-23T08:21:00;8.70;99.90
25628;DHT22;40915;50.826;4.356;2023-02-23T08:23:31;8.70;99.90
25628;DHT22;40915;50.826;4.356;2023-02-23T08:25:57;8.70;99.90
25628;DHT22;40915;50.826;4.356;2023-02-23T08:28:25;8.70;99.90
25628;DHT22;40915;50.826;4.356;2023-02-23T08:30:51;8.60;99.90
25628;DHT22;40915;50.826;4.356;2023-02-23T08:33:17;8.60;99.90
25628;DHT22;40915;50.826;4.356;2023-02-23T08:35:44;8.70;99.90
25628;DHT22;40915;50.826;4.356;2023-02-23T08:38:10;8.70;99.90
25628;DHT22;40915;50.826;4.356;2023-02-23T08:40:35;8.80;99.90
25628;DHT22;40915;50.826;4.356;2023-02-23T08:43:01;8.80;99.90
25628;DHT22;40915;50.826;4.356;2023-02-23T08:45:27;8.90;99.90
25628;DHT22;40915;50.826;4.356;2023-02-23T08:47:54;8.90;99.90
25628;DHT22;40915;50.826;4.356;2023-02-23T08:50:20;8.90;99.90
25628;DHT22;40915;50.826;4.356;2023-02-23T08:52:46;8.90;99.90
25628;DHT22;40915;50.826;4.356;2023-02-23T08:55:13;8.90;99.90
25628;DHT22;40915;50.826;4.356;2023-02-23T08:57:40;8.90;99.90
25628;DHT22;40915;50.826;4.356;2023-02-23T09:00:07;8.90;99.90
25628;DHT22;40915;50.826;4.356;2023-02-23T09:02:39;8.90;99.90
25628;DHT22;40915;50.826;4.356;2023-02-23T09:05:06;8.90;99.90
25628;DHT22;40915;50.826;4.356;2023-02-23T09:07:32;9.00;99.90
25628;DHT22;40915;50.826;4.356;2023-02-23T09:09:57;8.90;99.90
25628;DHT22;40915;50.826;4.356;2023-02-23T09:12:24;8.90;99.90
25628;DHT22;40915;50.826;4.356;2023-02-23T09:14:49;9.00;99.90
25628;DHT22;40915;50.826;4.356;2023-02-23T09:17:19;9.00;99.90
25628;DHT22;40915;50.826;4.356;2023-02-23T09:19:45;9.00;99.90
25628;DHT22;40915;50.826;4.356;2023-02-23T09:22:10;9.10;99.90
25628;DHT22;40915;50.826;4.356;2023-02-23T09:24:36;9.10;99.90
25628;DHT22;40915;50.826;4.356;2023-02-23T09:27:03;9.20;99.90
25628;DHT22;40915;50.826;4.356;2023-02-23T09:29:28;9.20;99.90
25628;DHT22;40915;50.826;4.356;2023-02-23T09:31:55;9.30;99.90
25628;DHT22;40915;50.826;4.356;2023-02-23T09:34:23;9.40;99.90
25628;DHT22;40915;50.826;4.356;2023-02-23T09:36:48;9.50;99.90
25628;DHT22;40915;50.826;4.356;2023-02-23T09:39:14;9.60;99.90
25628;DHT22;40915;50.826;4.356;2023-02-23T09:44:28;9.60;99.90
25628;DHT22;40915;50.826;4.356;2023-02-23T09:49:36;9.50;99.90
25628;DHT22;40915;50.826;4.356;2023-02-23T09:52:04;9.60;99.90
25628;DHT22;40915;50.826;4.356;2023-02-23T09:54:34;9.60;99.90
25628;DHT22;40915;50.826;4.356;2023-02-23T09:57:02;9.50;99.90
25628;DHT22;40915;50.826;4.356;2023-02-23T09:59:29;9.50;99.90
25628;DHT22;40915;50.826;4.356;2023-02-23T10:04:44;9.50;99.90
25628;DHT22;40915;50.826;4.356;2023-02-23T10:07:42;9.60;99.90
25628;DHT22;40915;50.826;4.356;2023-02-23T10:12:45;9.70;99.90
25628;DHT22;40915;50.826;4.356;2023-02-23T10:15:19;9.80;99.90
25628;DHT22;40915;50.826;4.356;2023-02-23T10:17:58;9.80;99.90
25628;DHT22;40915;50.826;4.356;2023-02-23T10:23:34;9.80;99.90
25628;DHT22;40915;50.826;4.356;2023-02-23T10:26:01;10.00;99.90
25628;DHT22;40915;50.826;4.356;2023-02-23T10:28:34;10.20;99.90
25628;DHT22;40915;50.826;4.356;2023-02-23T10:31:03;10.10;99.90
25628;DHT22;40915;50.826;4.356;2023-02-23T10:33:38;10.00;99.90
25628;DHT22;40915;50.826;4.356;2023-02-23T10:36:17;9.90;99.90
25628;DHT22;40915;50.826;4.356;2023-02-23T10:38:52;10.00;99.90
25628;DHT22;40915;50.826;4.356;2023-02-23T10:41:17;9.90;99.90
25628;DHT22;40915;50.826;4.356;2023-02-23T10:43:43;9.80;99.90
25628;DHT22;40915;50.826;4.356;2023-02-23T10:46:18;9.90;99.90
25628;DHT22;40915;50.826;4.356;2023-02-23T10:48:46;9.90;99.90
25628;DHT22;40915;50.826;4.356;2023-02-23T10:51:23;10.10;99.90
25628;DHT22;40915;50.826;4.356;2023-02-23T10:53:50;10.20;99.90
25628;DHT22;40915;50.826;4.356;2023-02-23T10:56:18;10.20;99.90
25628;DHT22;40915;50.826;4.356;2023-02-23T10:58:49;10.30;99.90
25628;DHT22;40915;50.826;4.356;2023-02-23T11:01:35;10.40;99.90
25628;DHT22;40915;50.826;4.356;2023-02-23T11:04:27;10.50;99.90
25628;DHT22;40915;50.826;4.356;2023-02-23T11:07:20;10.40;99.90
25628;DHT22;40915;50.826;4.356;2023-02-23T11:09:46;10.50;99.90
25628;DHT22;40915;50.826;4.356;2023-02-23T11:12:17;10.50;99.90
25628;DHT22;40915;50.826;4.356;2023-02-23T11:14:51;10.50;99.90
25628;DHT22;40915;50.826;4.356;2023-02-23T11:17:36;10.40;99.90
25628;DHT22;40915;50.826;4.356;2023-02-23T11:20:37;10.50;99.90
25628;DHT22;40915;50.826;4.356;2023-02-23T11:25:34;10.40;99.90
25628;DHT22;40915;50.826;4.356;2023-02-23T11:28:00;10.30;99.90
25628;DHT22;40915;50.826;4.356;2023-02-23T11:30:34;10.40;99.90
25628;DHT22;40915;50.826;4.356;2023-02-23T11:33:03;10.30;99.90
25628;DHT22;40915;50.826;4.356;2023-02-23T11:35:35;10.30;99.90
25628;DHT22;40915;50.826;4.356;2023-02-23T11:38:22;10.20;99.90
25628;DHT22;40915;50.826;4.356;2023-02-23T11:41:05;10.20;99.90
25628;DHT22;40915;50.826;4.356;2023-02-23T11:43:50;10.20;99.90
25628;DHT22;40915;50.826;4.356;2023-02-23T11:46:20;10.20;99.90
25628;DHT22;40915;50.826;4.356;2023-02-23T11:49:00;10.20;99.90
25628;DHT22;40915;50.826;4.356;2023-02-23T11:51:30;10.20;99.90
25628;DHT22;40915;50.826;4.356;2023-02-23T11:53:58;10.30;99.90
25628;DHT22;40915;50.826;4.356;2023-02-23T11:56:25;10.30;99.90
25628;DHT22;40915;50.826;4.356;2023-02-23T12:01:40;10.30;99.90
25628;DHT22;40915;50.826;4.356;2023-02-23T12:04:21;10.20;99.90
25628;DHT22;40915;50.826;4.356;2023-02-23T12:06:49;10.10;99.90
25628;DHT22;40915;50.826;4.356;2023-02-23T12:09:22;10.10;99.90
25628;DHT22;40915;50.826;4.356;2023-02-23T12:12:10;10.10;99.90
25628;DHT22;40915;50.826;4.356;2023-02-23T12:14:52;10.30;99.90
25628;DHT22;40915;50.826;4.356;2023-02-23T12:17:32;10.40;99.90
25628;DHT22;40915;50.826;4.356;2023-02-23T12:20:11;10.50;99.90
25628;DHT22;40915;50.826;4.356;2023-02-23T12:22:54;10.70;99.90
25628;DHT22;40915;50.826;4.356;2023-02-23T12:25:39;10.70;99.90
25628;DHT22;40915;50.826;4.356;2023-02-23T12:28:26;10.70;99.90
25628;DHT22;40915;50.826;4.356;2023-02-23T12:31:18;10.70;99.90
25628;DHT22;40915;50.826;4.356;2023-02-23T12:33:52;10.70;99.90
25628;DHT22;40915;50.826;4.356;2023-02-23T12:41:44;10.80;99.90
25628;DHT22;40915;50.826;4.356;2023-02-23T12:47:35;10.80;99.90
25628;DHT22;40915;50.826;4.356;2023-02-23T12:52:52;10.60;99.90
25628;DHT22;40915;50.826;4.356;2023-02-23T12:55:38;10.60;99.90
25628;DHT22;40915;50.826;4.356;2023-02-23T13:07:34;10.80;99.90
25628;DHT22;40915;50.826;4.356;2023-02-23T13:20:50;10.90;99.90
25628;DHT22;40915;50.826;4.356;2023-02-23T13:26:04;10.80;99.90
25628;DHT22;40915;50.826;4.356;2023-02-23T13:31:38;10.80;99.90
25628;DHT22;40915;50.826;4.356;2023-02-23T13:34:09;10.70;99.90
25628;DHT22;40915;50.826;4.356;2023-02-23T13:36:36;10.80;99.90
25628;DHT22;40915;50.826;4.356;2023-02-23T13:44:53;10.60;99.90
25628;DHT22;40915;50.826;4.356;2023-02-23T13:47:48;10.60;99.90
25628;DHT22;40915;50.826;4.356;2023-02-23T13:50:27;10.50;99.90
25628;DHT22;40915;50.826;4.356;2023-02-23T13:52:57;10.50;99.90
25628;DHT22;40915;50.826;4.356;2023-02-23T13:58:10;10.50;99.90
25628;DHT22;40915;50.826;4.356;2023-02-23T14:00:40;10.40;99.90
25628;DHT22;40915;50.826;4.356;2023-02-23T14:03:07;10.40;99.90
25628;DHT22;40915;50.826;4.356;2023-02-23T14:05:42;10.40;99.90
25628;DHT22;40915;50.826;4.356;2023-02-23T14:08:17;10.30;99.90
25628;DHT22;40915;50.826;4.356;2023-02-23T14:10:45;10.40;99.90
25628;DHT22;40915;50.826;4.356;2023-02-23T14:15:48;10.30;99.90
25628;DHT22;40915;50.826;4.356;2023-02-23T14:21:26;10.30;99.90
25628;DHT22;40915;50.826;4.356;2023-02-23T14:29:20;10.30;99.90
25628;DHT22;40915;50.826;4.356;2023-02-23T14:31:58;10.40;99.90
25628;DHT22;40915;50.826;4.356;2023-02-23T14:34:58;10.50;99.90
25628;DHT22;40915;50.826;4.356;2023-02-23T14:37:34;10.50;99.90
25628;DHT22;40915;50.826;4.356;2023-02-23T14:40:28;10.50;99.90
25628;DHT22;40915;50.826;4.356;2023-02-23T14:42:57;10.50;99.90
25628;DHT22;40915;50.826;4.356;2023-02-23T14:45:30;10.60;99.90
25628;DHT22;40915;50.826;4.356;2023-02-23T14:48:10;10.50;99.90
25628;DHT22;40915;50.826;4.356;2023-02-23T14:50:37;10.50;99.90
25628;DHT22;40915;50.826;4.356;2023-02-23T14:53:06;10.60;99.90
25628;DHT22;40915;50.826;4.356;2023-02-23T14:55:40;10.60;99.90
25628;DHT22;40915;50.826;4.356;2023-02-23T14:58:29;10.70;99.90
25628;DHT22;40915;50.826;4.356;2023-02-23T15:00:58;10.70;99.90
25628;DHT22;40915;50.826;4.356;2023-02-23T15:03:24;10.70;99.90
25628;DHT22;40915;50.826;4.356;2023-02-23T15:05:53;10.90;99.90
25628;DHT22;40915;50.826;4.356;2023-02-23T15:08:24;10.90;99.90
25628;DHT22;40915;50.826;4.356;2023-02-23T15:10:58;10.90;99.90
25628;DHT22;40915;50.826;4.356;2023-02-23T15:13:31;10.90;99.90
25628;DHT22;40915;50.826;4.356;2023-02-23T15:16:01;10.90;99.90
25628;DHT22;40915;50.826;4.356;2023-02-23T15:18:37;10.90;99.90
25628;DHT22;40915;50.826;4.356;2023-02-23T15:21:16;10.90;99.90
25628;DHT22;40915;50.826;4.356;2023-02-23T15:23:48;10.90;99.90
25628;DHT22;40915;50.826;4.356;2023-02-23T15:26:33;11.00;99.90
25628;DHT22;40915;50.826;4.356;2023-02-23T15:29:16;11.00;99.90
25628;DHT22;40915;50.826;4.356;2023-02-23T15:31:45;11.00;99.90
25628;DHT22;40915;50.826;4.356;2023-02-23T15:34:20;10.90;99.90
25628;DHT22;40915;50.826;4.356;2023-02-23T15:36:51;10.90;99.90
25628;DHT22;40915;50.826;4.356;2023-02-23T15:39:24;10.80;99.90
25628;DHT22;40915;50.826;4.356;2023-02-23T15:41:58;10.80;99.90
25628;DHT22;40915;50.826;4.356;2023-02-23T15:44:26;10.80;99.90
25628;DHT22;40915;50.826;4.356;2023-02-23T15:47:05;10.80;99.90
25628;DHT22;40915;50.826;4.356;2023-02-23T15:49:37;10.70;99.90
25628;DHT22;40915;50.826;4.356;2023-02-23T15:52:16;10.70;99.90
25628;DHT22;40915;50.826;4.356;2023-02-23T15:55:05;10.70;99.90
25628;DHT22;40915;50.826;4.356;2023-02-23T15:57:40;10.70;99.90
25628;DHT22;40915;50.826;4.356;2023-02-23T16:00:36;10.70;99.90
25628;DHT22;40915;50.826;4.356;2023-02-23T16:03:04;10.70;99.90
25628;DHT22;40915;50.826;4.356;2023-02-23T16:05:32;10.70;99.90
25628;DHT22;40915;50.826;4.356;2023-02-23T16:08:14;10.70;99.90
25628;DHT22;40915;50.826;4.356;2023-02-23T16:10:48;10.70;99.90
25628;DHT22;40915;50.826;4.356;2023-02-23T16:13:20;10.60;99.90
25628;DHT22;40915;50.826;4.356;2023-02-23T16:15:47;10.50;99.90
25628;DHT22;40915;50.826;4.356;2023-02-23T16:18:21;10.50;99.90
25628;DHT22;40915;50.826;4.356;2023-02-23T16:20:54;10.60;99.90
25628;DHT22;40915;50.826;4.356;2023-02-23T16:23:40;10.40;99.90
25628;DHT22;40915;50.826;4.356;2023-02-23T16:26:09;10.40;99.90
25628;DHT22;40915;50.826;4.356;2023-02-23T16:28:39;10.30;99.90
25628;DHT22;40915;50.826;4.356;2023-02-23T16:31:07;10.30;99.90
25628;DHT22;40915;50.826;4.356;2023-02-23T16:38:45;10.20;99.90
25628;DHT22;40915;50.826;4.356;2023-02-23T16:41:23;10.20;99.90
25628;DHT22;40915;50.826;4.356;2023-02-23T16:43:51;10.20;99.90
25628;DHT22;40915;50.826;4.356;2023-02-23T16:46:18;10.20;99.90
25628;DHT22;40915;50.826;4.356;2023-02-23T16:48:45;10.10;99.90
25628;DHT22;40915;50.826;4.356;2023-02-23T16:51:13;10.10;99.90
25628;DHT22;40915;50.826;4.356;2023-02-23T16:53:39;10.20;99.90
25628;DHT22;40915;50.826;4.356;2023-02-23T16:56:05;10.10;99.90
25628;DHT22;40915;50.826;4.356;2023-02-23T16:58:37;10.10;99.90
25628;DHT22;40915;50.826;4.356;2023-02-23T17:01:04;10.20;99.90
25628;DHT22;40915;50.826;4.356;2023-02-23T17:03:31;10.10;99.90
25628;DHT22;40915;50.826;4.356;2023-02-23T17:05:57;10.00;99.90
25628;DHT22;40915;50.826;4.356;2023-02-23T17:08:23;10.00;99.90
25628;DHT22;40915;50.826;4.356;2023-02-23T17:10:51;10.00;99.90
25628;DHT22;40915;50.826;4.356;2023-02-23T17:13:28;10.10;99.90
25628;DHT22;40915;50.826;4.356;2023-02-23T17:15:58;10.10;99.90
25628;DHT22;40915;50.826;4.356;2023-02-23T17:18:27;10.00;99.90
25628;DHT22;40915;50.826;4.356;2023-02-23T17:20:53;10.00;99.90
25628;DHT22;40915;50.826;4.356;2023-02-23T17:23:21;10.00;99.90
25628;DHT22;40915;50.826;4.356;2023-02-23T17:25:48;10.00;99.90
25628;DHT22;40915;50.826;4.356;2023-02-23T17:28:13;10.00;99.90
25628;DHT22;40915;50.826;4.356;2023-02-23T17:30:39;9.90;99.90
25628;DHT22;40915;50.826;4.356;2023-02-23T17:33:08;9.90;99.90
25628;DHT22;40915;50.826;4.356;2023-02-23T17:35:34;9.90;99.90
25628;DHT22;40915;50.826;4.356;2023-02-23T17:38:05;9.90;99.90
25628;DHT22;40915;50.826;4.356;2023-02-23T17:40:31;9.90;99.90
25628;DHT22;40915;50.826;4.356;2023-02-23T17:43:01;9.90;99.90
25628;DHT22;40915;50.826;4.356;2023-02-23T17:45:28;9.90;99.90
25628;DHT22;40915;50.826;4.356;2023-02-23T17:47:55;9.90;99.90
25628;DHT22;40915;50.826;4.356;2023-02-23T17:50:21;10.00;99.90
25628;DHT22;40915;50.826;4.356;2023-02-23T17:52:48;9.90;99.90
25628;DHT22;40915;50.826;4.356;2023-02-23T17:55:15;9.80;99.90
25628;DHT22;40915;50.826;4.356;2023-02-23T17:57:40;9.80;99.90
25628;DHT22;40915;50.826;4.356;2023-02-23T18:00:09;9.80;99.90
25628;DHT22;40915;50.826;4.356;2023-02-23T18:02:40;9.80;99.90
25628;DHT22;40915;50.826;4.356;2023-02-23T18:05:08;9.80;99.90
25628;DHT22;40915;50.826;4.356;2023-02-23T18:07:34;9.80;99.90